Time;durP1;ratioP1;P1;durP2;ratioP2;P2;SDS_P1;SDS_P2;PMS_P1;PMS_P2;Temp;Humidity;BMP_temperature;BMP_pressure;BME280_temperature;BME280_humidity;BME280_pressure;Samples;Min_cycle;Max_cycle;Signal;HPM_P1;HPM_P2
2021/01/23 00:01:20;;;;;;;39.35;21.10;;;;;;;-0.43;97.03;98724.09;1818987;78;22082;-75
2021/01/23 00:03:48;;;;;;;42.43;21.15;;;;;;;-0.46;97.05;98723.28;1819021;78;21013;-74
2021/01/23 00:06:15;;;;;;;41.53;20.23;;;;;;;-0.50;97.24;98717.33;1787038;80;21067;-75
2021/01/23 00:08:42;;;;;;;40.75;21.15;;;;;;;-0.53;97.34;98712.47;1787142;80;21026;-74
2021/01/23 00:11:10;;;;;;;37.25;19.30;;;;;;;-0.56;97.36;98707.59;1787162;80;22040;-73
2021/01/23 00:13:37;;;;;;;37.30;19.50;;;;;;;-0.59;97.41;98710.31;1787081;80;21551;-73
2021/01/23 00:16:05;;;;;;;39.98;20.15;;;;;;;-0.60;97.42;98709.23;1787082;80;21078;-73
2021/01/23 00:18:33;;;;;;;43.73;22.25;;;;;;;-0.64;97.50;98706.78;1787062;80;20940;-74
2021/01/23 00:21:00;;;;;;;43.68;23.15;;;;;;;-0.65;97.66;98710.02;1787038;80;21094;-73
2021/01/23 00:23:28;;;;;;;42.45;21.05;;;;;;;-0.66;97.66;98713.78;1786733;80;21364;-74
2021/01/23 00:25:55;;;;;;;45.35;21.62;;;;;;;-0.65;97.63;98722.69;1783751;80;21611;-74
2021/01/23 00:28:22;;;;;;;39.08;19.82;;;;;;;-0.65;97.69;98725.38;1783744;80;21224;-74
2021/01/23 00:30:50;;;;;;;44.08;22.02;;;;;;;-0.67;97.78;98725.10;1783778;80;21486;-74
2021/01/23 00:33:17;;;;;;;39.92;21.33;;;;;;;-0.67;97.86;98722.41;1783771;80;21011;-75
2021/01/23 00:35:45;;;;;;;39.05;18.17;;;;;;;-0.64;97.90;98728.34;1786514;79;21359;-76
2021/01/23 00:38:12;;;;;;;42.03;19.82;;;;;;;-0.64;97.97;98732.39;1805614;78;20922;-76
2021/01/23 00:40:39;;;;;;;39.50;19.02;;;;;;;-0.63;98.02;98720.53;1798976;79;21609;-74
2021/01/23 00:43:07;;;;;;;38.00;19.02;;;;;;;-0.61;98.15;98719.73;1815892;79;21485;-74
2021/01/23 00:45:34;;;;;;;42.00;19.32;;;;;;;-0.60;98.23;98708.69;1812795;79;21113;-75
2021/01/23 00:48:11;;;;;;;39.10;19.27;;;;;;;-0.58;98.22;98712.47;1796291;80;21734;-75
2021/01/23 00:50:39;;;;;;;36.77;18.92;;;;;;;-0.58;98.17;98711.94;1796214;79;20985;-75
2021/01/23 00:53:08;;;;;;;36.00;19.65;;;;;;;-0.57;98.14;98714.06;1776452;80;21151;-76
2021/01/23 00:55:35;;;;;;;36.80;19.50;;;;;;;-0.56;98.19;98708.95;1796342;80;21060;-76
2021/01/23 00:58:04;;;;;;;30.02;17.55;;;;;;;-0.56;98.23;98708.41;1796331;79;20875;-76
2021/01/23 01:00:32;;;;;;;39.05;18.77;;;;;;;-0.57;98.24;98704.63;1796403;80;22204;-76
2021/01/23 01:03:00;;;;;;;37.25;20.02;;;;;;;-0.54;98.37;98705.45;1796185;80;20954;-75
2021/01/23 01:05:36;;;;;;;31.57;16.82;;;;;;;-0.54;98.38;98695.47;1796056;78;20981;-74
2021/01/23 01:08:05;;;;;;;39.50;20.15;;;;;;;-0.53;98.38;98694.94;1796287;80;21036;-74
2021/01/23 01:10:32;;;;;;;34.23;19.20;;;;;;;-0.54;98.35;98698.70;1796383;80;21480;-74
2021/01/23 01:13:02;;;;;;;41.77;20.12;;;;;;;-0.52;98.31;98704.64;1796308;79;22377;-74
2021/01/23 01:15:30;;;;;;;35.35;18.62;;;;;;;-0.51;98.29;98707.62;1796268;80;20927;-73
2021/01/23 01:17:58;;;;;;;41.20;20.90;;;;;;;-0.49;98.25;98710.33;1796253;79;20946;-74
2021/01/23 01:20:25;;;;;;;37.63;18.77;;;;;;;-0.49;98.19;98709.52;1796173;79;21158;-74
2021/01/23 01:22:53;;;;;;;40.43;19.50;;;;;;;-0.49;98.21;98702.77;1796171;80;20914;-74
2021/01/23 01:25:20;;;;;;;35.98;18.50;;;;;;;-0.48;98.25;98699.00;1796078;80;21362;-73
2021/01/23 01:27:48;;;;;;;34.25;18.10;;;;;;;-0.48;98.28;98694.42;1796225;79;21537;-73
2021/01/23 01:30:17;;;;;;;36.25;20.48;;;;;;;-0.48;98.25;98698.47;1796422;79;20966;-73
2021/01/23 01:32:44;;;;;;;40.95;19.67;;;;;;;-0.48;98.15;98703.86;1796343;79;20895;-74
2021/01/23 01:35:12;;;;;;;35.03;18.77;;;;;;;-0.46;98.08;98706.29;1796515;79;21477;-73
2021/01/23 01:37:41;;;;;;;39.50;18.92;;;;;;;-0.48;98.04;98697.12;1796398;79;21086;-73
2021/01/23 01:40:10;;;;;;;36.42;19.20;;;;;;;-0.49;97.95;98710.33;1796457;79;21552;-73
2021/01/23 01:42:38;;;;;;;36.65;19.90;;;;;;;-0.49;97.91;98713.55;1796421;79;20993;-73
2021/01/23 01:45:06;;;;;;;37.85;20.08;;;;;;;-0.50;97.89;98716.79;1796362;79;21017;-74
2021/01/23 01:47:34;;;;;;;37.23;19.42;;;;;;;-0.50;97.89;98716.79;1796509;79;21572;-74
2021/01/23 01:50:03;;;;;;;37.90;18.48;;;;;;;-0.50;97.94;98713.28;1796364;79;21193;-74
2021/01/23 01:52:31;;;;;;;37.83;18.90;;;;;;;-0.50;97.93;98710.59;1796367;79;20927;-74
2021/01/23 01:54:59;;;;;;;35.13;18.75;;;;;;;-0.51;97.89;98702.23;1796405;79;20974;-74
2021/01/23 01:57:27;;;;;;;44.30;21.52;;;;;;;-0.52;97.87;98697.91;1796371;79;20986;-73
2021/01/23 01:59:54;;;;;;;40.50;20.05;;;;;;;-0.55;97.90;98689.81;1796375;79;21069;-74
2021/01/23 02:03:04;;;;;;;34.30;19.42;;;;;;;-0.55;98.05;98691.16;1796370;79;21196;-76
2021/01/23 02:05:49;;;;;;;34.05;18.80;;;;;;;-0.55;98.08;98692.51;1796314;79;20934;-76
2021/01/23 02:08:51;;;;;;;37.55;19.15;;;;;;;-0.56;98.01;98691.42;1712833;79;21130;-75
2021/01/23 02:11:37;;;;;;;32.63;17.37;;;;;;;-0.56;97.99;98700.86;1796357;79;20927;-76
2021/01/23 02:14:26;;;;;;;31.37;18.73;;;;;;;-0.58;97.98;98704.38;1796469;79;21465;-77
2021/01/23 02:16:54;;;;;;;42.05;24.02;;;;;;;-0.58;98.03;98727.30;1796444;79;21372;-76
2021/01/23 02:19:59;;;;;;;60.05;30.75;;;;;;;-0.58;98.08;98726.77;1796246;79;21061;-77
2021/01/23 02:22:42;;;;;;;59.30;33.88;;;;;;;-0.56;98.17;98733.20;1796313;79;20954;-78
2021/01/23 02:25:10;;;;;;;81.12;39.20;;;;;;;-0.55;98.15;98735.64;1806912;78;21611;-75
2021/01/23 02:28:10;;;;;;;71.60;35.28;;;;;;;-0.55;98.09;98729.44;1819414;78;21005;-75
2021/01/23 02:30:43;;;;;;;64.77;33.38;;;;;;;-0.53;98.09;98740.77;1819342;78;22683;-74
2021/01/23 02:33:10;;;;;;;70.15;37.42;;;;;;;-0.51;98.18;98733.23;1819225;78;25695;-74
2021/01/23 02:35:38;;;;;;;59.23;31.45;;;;;;;-0.48;98.10;98741.61;1819380;78;21010;-73
2021/01/23 02:38:05;;;;;;;55.40;29.55;;;;;;;-0.48;98.04;98740.26;1819355;78;21143;-73
2021/01/23 02:40:33;;;;;;;45.08;24.57;;;;;;;-0.47;97.89;98728.94;1819381;78;21065;-73
2021/01/23 02:43:01;;;;;;;48.40;24.60;;;;;;;-0.49;97.78;98727.04;1819382;78;21772;-75
2021/01/23 02:45:28;;;;;;;42.53;19.80;;;;;;;-0.50;97.70;98726.77;1794353;78;21121;-75
2021/01/23 02:47:55;;;;;;;38.60;20.40;;;;;;;-0.51;97.62;98729.19;1819320;78;21017;-75
2021/01/23 02:50:23;;;;;;;34.30;18.85;;;;;;;-0.53;97.58;98733.49;1819428;78;21480;-74
2021/01/23 02:53:10;;;;;;;34.38;18.23;;;;;;;-0.55;97.53;98728.91;1819397;78;20903;-74
2021/01/23 02:55:39;;;;;;;38.90;19.77;;;;;;;-0.58;97.45;98728.65;1819426;78;21378;-75
2021/01/23 02:58:07;;;;;;;38.20;20.08;;;;;;;-0.61;97.36;98728.63;1769012;78;20981;-75
2021/01/23 03:00:34;;;;;;;39.35;19.77;;;;;;;-0.63;97.39;98725.92;1819371;78;21484;-74
2021/01/23 03:03:02;;;;;;;36.25;20.02;;;;;;;-0.66;97.42;98724.56;1819370;78;22392;-74
2021/01/23 03:05:34;;;;;;;33.63;18.27;;;;;;;-0.69;97.37;98723.74;1819377;78;21048;-73
2021/01/23 03:08:03;;;;;;;;;;;;;;;-0.72;97.34;98721.03;1822097;78;21300;-74
2021/01/23 03:10:44;;;;;;;34.98;18.75;;;;;;;-0.75;97.41;98721.56;1819408;78;20207;-75
2021/01/23 03:13:13;;;;;;;32.30;18.20;;;;;;;-0.77;97.52;98717.50;1795079;78;20923;-76
2021/01/23 03:15:41;;;;;;;37.63;19.57;;;;;;;-0.78;97.62;98718.58;1819364;78;20894;-76
2021/01/23 03:18:09;;;;;;;37.63;20.10;;;;;;;-0.79;97.65;98715.07;1819459;78;21524;-76
2021/01/23 03:20:37;;;;;;;40.65;21.07;;;;;;;-0.80;97.67;98716.14;1819349;78;21676;-76
2021/01/23 03:23:05;;;;;;;34.23;18.85;;;;;;;-0.80;97.61;98715.33;1819005;78;20958;-75
2021/01/23 03:25:32;;;;;;;41.35;21.25;;;;;;;-0.82;97.56;98719.64;1813802;78;20910;-75
2021/01/23 03:28:00;;;;;;;39.88;20.75;;;;;;;-0.84;97.50;98728.52;1799252;79;20985;-76
2021/01/23 03:30:29;;;;;;;40.25;20.43;;;;;;;-0.86;97.48;98727.97;1799450;79;20973;-75
2021/01/23 03:32:56;;;;;;;37.70;19.48;;;;;;;-0.88;97.45;98730.11;1799468;79;22267;-76
2021/01/23 03:35:25;;;;;;;37.63;20.70;;;;;;;-0.88;97.48;98734.16;1799342;79;20938;-75
2021/01/23 03:37:52;;;;;;;34.05;19.17;;;;;;;-0.88;97.54;98731.99;1780027;79;20934;-74
2021/01/23 03:40:20;;;;;;;37.42;18.82;;;;;;;-0.91;97.50;98725.24;1799377;79;21072;-73
2021/01/23 03:42:47;;;;;;;38.45;20.70;;;;;;;-0.91;97.66;98723.89;1799366;79;21100;-73
2021/01/23 03:45:15;;;;;;;37.63;19.92;;;;;;;-0.90;97.80;98728.75;1799503;79;21068;-75
2021/01/23 03:47:42;;;;;;;38.60;21.07;;;;;;;-0.91;97.90;98719.86;1799379;79;20930;-75
2021/01/23 03:50:12;;;;;;;35.90;20.23;;;;;;;-0.92;97.82;98721.46;1799442;79;21303;-74
2021/01/23 03:52:41;;;;;;;48.90;22.42;;;;;;;-0.95;97.74;98728.72;1799356;79;20923;-74
2021/01/23 03:55:10;;;;;;;39.10;21.17;;;;;;;-0.97;97.75;98742.98;1799422;79;21583;-73
2021/01/23 03:57:38;;;;;;;47.40;22.67;;;;;;;-1.02;97.70;98735.14;1799394;79;21354;-73
2021/01/23 04:00:07;;;;;;;43.55;22.30;;;;;;;-1.06;97.72;98730.54;1799433;78;21187;-72
2021/01/23 04:02:35;;;;;;;48.08;23.90;;;;;;;-1.08;97.89;98731.33;1799385;79;21394;-74
2021/01/23 04:05:05;;;;;;;46.50;23.62;;;;;;;-1.09;97.96;98733.75;1799490;79;21543;-74
2021/01/23 04:07:33;;;;;;;46.18;24.20;;;;;;;-1.12;97.99;98728.34;1799395;79;21473;-74
2021/01/23 04:10:01;;;;;;;48.90;22.90;;;;;;;-1.13;98.03;98732.64;1799505;78;21355;-74
2021/01/23 04:12:32;;;;;;;45.98;23.00;;;;;;;-1.16;98.07;98731.84;1799432;79;21499;-73
2021/01/23 04:14:59;;;;;;;51.13;24.50;;;;;;;-1.19;98.14;98732.36;1799398;79;21013;-73
2021/01/23 04:17:27;;;;;;;43.15;20.80;;;;;;;-1.19;98.26;98739.09;1799282;79;21005;-73
2021/01/23 04:19:54;;;;;;;41.63;21.15;;;;;;;-1.20;98.33;98730.20;1799442;79;21472;-74
2021/01/23 04:22:22;;;;;;;43.45;20.65;;;;;;;-1.19;98.69;98736.41;1799462;79;22061;-74
2021/01/23 04:24:49;;;;;;;48.83;23.00;;;;;;;-1.18;98.89;98735.34;1801214;78;21146;-74
2021/01/23 04:27:17;;;;;;;49.20;23.65;;;;;;;-1.15;99.06;98730.74;1814697;79;21097;-74
2021/01/23 04:29:46;;;;;;;40.43;21.80;;;;;;;-1.15;99.07;98736.13;1798494;78;21499;-73
2021/01/23 04:32:14;;;;;;;45.83;23.42;;;;;;;-1.15;98.97;98737.48;1796293;80;20915;-74
2021/01/23 04:34:42;;;;;;;43.78;21.55;;;;;;;-1.17;98.97;98736.42;1811859;79;21057;-74
2021/01/23 04:37:10;;;;;;;41.88;22.02;;;;;;;-1.17;99.04;98740.46;1815808;79;20999;-74
2021/01/23 04:39:37;;;;;;;46.28;22.30;;;;;;;-1.17;99.04;98751.77;1815821;79;20972;-75
2021/01/23 04:42:07;;;;;;;38.75;20.77;;;;;;;-1.18;99.12;98749.61;1799476;79;21480;-76
2021/01/23 04:44:35;;;;;;;50.58;21.45;;;;;;;-1.17;99.13;98739.11;1796312;79;21104;-76
2021/01/23 04:47:04;;;;;;;39.73;20.95;;;;;;;-1.18;99.08;98742.06;1796290;78;21363;-76
2021/01/23 04:49:33;;;;;;;39.80;19.85;;;;;;;-1.17;99.19;98749.08;1796225;80;20931;-75
2021/01/23 04:52:05;;;;;;;39.18;20.97;;;;;;;-1.17;99.27;98745.03;1796278;80;21077;-76
2021/01/23 04:54:33;;;;;;;54.38;23.70;;;;;;;-1.17;99.27;98747.20;1796438;79;21072;-75
2021/01/23 04:57:02;;;;;;;39.73;20.12;;;;;;;-1.16;99.37;98746.66;1796229;79;20895;-75
2021/01/23 04:59:30;;;;;;;38.98;18.17;;;;;;;-1.15;99.50;98749.06;1796306;80;21201;-74
2021/01/23 05:02:18;;;;;;;38.20;19.77;;;;;;;-1.13;99.63;98762.27;1796224;79;21006;-72
2021/01/23 05:04:57;;;;;;;40.48;19.45;;;;;;;-1.11;99.80;98760.95;1793692;78;21540;-75
2021/01/23 05:07:35;;;;;;;36.23;20.88;;;;;;;-1.10;99.77;98758.53;1796311;79;22040;-73
2021/01/23 05:10:17;;;;;;;39.48;19.85;;;;;;;-1.10;99.72;98749.64;1796428;79;20907;-72
2021/01/23 05:12:48;;;;;;;41.48;19.73;;;;;;;-1.12;99.52;98745.04;1794821;79;22381;-71
2021/01/23 05:15:29;;;;;;;43.85;21.05;;;;;;;-1.14;99.45;98744.48;1796245;79;21163;-71
2021/01/23 05:18:01;;;;;;;46.58;22.77;;;;;;;-1.17;99.38;98739.65;1796476;79;21191;-72
2021/01/23 05:20:37;;;;;;;45.73;22.15;;;;;;;-1.19;99.43;98743.14;1796445;79;21526;-72
2021/01/23 05:23:10;;;;;;;44.88;23.20;;;;;;;-1.14;99.82;98757.95;1796407;79;21483;-73
2021/01/23 05:25:39;;;;;;;52.40;23.18;;;;;;;-1.12;99.89;98757.16;1796398;79;22252;-73
2021/01/23 05:28:09;;;;;;;43.90;22.30;;;;;;;-1.14;99.63;98762.00;1796353;79;21104;-74
2021/01/23 05:33:32;;;;;;;48.30;23.18;;;;;;;-1.16;99.46;98758.78;1873728;75;22517;-71
2021/01/23 05:36:05;;;;;;;45.17;22.75;;;;;;;-1.24;99.42;98758.72;1838809;77;21094;-72
2021/01/23 05:38:38;;;;;;;54.83;24.10;;;;;;;-1.25;99.42;98764.37;1841807;78;21353;-75
2021/01/23 05:41:12;;;;;;;;;;;;;;;-1.29;99.41;98754.64;1844406;78;20932;-75
2021/01/23 05:43:50;;;;;;;45.90;22.13;;;;;;;-1.30;99.43;98753.02;1841800;78;20468;-83
2021/01/23 05:46:29;;;;;;;49.88;21.37;;;;;;;-1.32;99.44;98746.27;1841697;78;20980;-77
2021/01/23 05:48:58;;;;;;;49.55;23.25;;;;;;;-1.35;99.45;98748.41;1841802;78;20920;-81
2021/01/23 05:51:25;;;;;;;40.48;21.07;;;;;;;-1.36;99.50;98756.20;1841661;78;21369;-79
2021/01/23 05:53:53;;;;;;;38.95;20.95;;;;;;;-1.36;99.53;98767.52;1812405;76;20936;-78
2021/01/23 05:56:21;;;;;;;44.58;23.15;;;;;;;-1.37;99.52;98757.27;1821483;76;20976;-79
2021/01/23 05:58:49;;;;;;;51.50;25.05;;;;;;;-1.39;99.47;98752.69;1808653;79;21114;-81
2021/01/23 06:01:22;;;;;;;56.25;29.85;;;;;;;-1.38;99.48;98757.53;1808414;79;21066;-84
2021/01/23 06:03:57;;;;;;;65.75;35.05;;;;;;;-1.38;99.47;98757.53;1807987;78;22262;-78
2021/01/23 06:06:23;;;;;;;127.02;66.22;;;;;;;-1.30;99.89;98760.28;1807634;78;21157;-78
2021/01/23 06:08:53;;;;;;;96.95;56.58;;;;;;;-1.29;99.76;98760.03;1807542;79;21161;-79
2021/01/23 06:11:34;;;;;;;72.90;40.70;;;;;;;-1.29;99.59;98755.18;1807702;79;21182;-80
2021/01/23 06:14:02;;;;;;;70.35;39.53;;;;;;;-1.30;99.44;98756.25;1807749;79;21111;-79
2021/01/23 06:16:36;;;;;;;58.38;33.42;;;;;;;-1.30;99.41;98758.94;1807686;79;21185;-80
2021/01/23 06:19:13;;;;;;;45.23;27.20;;;;;;;-1.29;99.34;98780.23;1808245;79;20961;-78
2021/01/23 06:21:48;;;;;;;40.78;23.30;;;;;;;-1.28;99.33;98779.69;1792008;79;20988;-79
2021/01/23 06:24:17;;;;;;;48.75;23.83;;;;;;;-1.28;99.27;98767.57;1757701;81;20938;-80
2021/01/23 06:26:57;;;;;;;39.95;23.05;;;;;;;-1.27;99.22;98779.97;1755498;81;20930;-79
2021/01/23 06:29:41;;;;;;;47.88;24.25;;;;;;;-1.25;99.23;98784.56;1754808;80;21368;-80
2021/01/23 06:32:23;;;;;;;45.33;23.80;;;;;;;-1.21;99.27;98782.98;1760462;79;21021;-78
2021/01/23 06:34:59;;;;;;;42.15;21.42;;;;;;;-1.17;99.28;98787.59;1785117;80;21010;-79
2021/01/23 06:37:34;;;;;;;40.73;21.37;;;;;;;-1.10;99.30;98781.95;1790650;77;21157;-77
2021/01/23 06:40:27;;;;;;;38.35;19.82;;;;;;;-1.03;99.34;98782.02;1809996;79;20912;-81
2021/01/23 06:42:56;;;;;;;36.00;19.12;;;;;;;-0.95;99.33;98790.15;1816950;79;21193;-82
2021/01/23 06:45:26;;;;;;;38.67;20.77;;;;;;;-0.83;99.37;98777.83;1816552;78;21510;-80
2021/01/23 06:47:56;;;;;;;33.92;20.08;;;;;;;-0.74;99.19;98782.48;1767628;81;20905;-80
2021/01/23 06:50:36;;;;;;;44.27;23.87;;;;;;;-0.59;99.09;98778.24;1747644;82;21507;-80
2021/01/23 06:53:06;;;;;;;48.98;24.63;;;;;;;-0.49;98.69;98779.08;1759091;81;21844;-77
2021/01/23 06:55:52;;;;;;;41.85;20.82;;;;;;;-0.38;98.54;98779.41;1736137;82;21353;-78
2021/01/23 06:58:29;;;;;;;41.73;21.87;;;;;;;-0.27;97.87;98778.91;1737474;81;21123;-77
2021/01/23 07:01:00;;;;;;;59.23;25.37;;;;;;;0.00;98.16;98767.38;1737085;82;21001;-78
2021/01/23 07:03:30;;;;;;;45.48;24.50;;;;;;;0.49;97.70;98761.53;1736740;82;21623;-80
2021/01/23 07:06:00;;;;;;;61.73;34.88;;;;;;;1.01;95.61;98759.61;1736753;82;21223;-82
2021/01/23 07:08:34;;;;;;;67.45;39.13;;;;;;;1.38;91.84;98753.83;1746359;79;21344;-82
2021/01/23 07:11:14;;;;;;;46.63;26.65;;;;;;;1.46;90.64;98750.56;1744339;80;20966;-82
2021/01/23 07:14:04;;;;;;;69.00;36.63;;;;;;;1.41;89.06;98747.88;1737274;81;21028;-83
2021/01/23 07:16:35;;;;;;;67.75;30.00;;;;;;;1.41;89.13;98754.09;1737132;81;21599;-82
2021/01/23 07:19:07;;;;;;;45.52;23.98;;;;;;;1.73;89.34;98755.06;1737009;82;21053;-82
2021/01/23 07:21:40;;;;;;;47.67;27.50;;;;;;;1.99;87.72;98757.08;1736632;82;21374;-81
2021/01/23 07:24:09;;;;;;;;;;;;;;;1.89;85.59;98750.36;1764855;79;21029;-80
2021/01/23 07:26:37;;;;;;;84.32;44.75;;;;;;;1.71;85.90;98741.55;1757067;81;20164;-81
2021/01/23 07:29:05;;;;;;;90.57;52.60;;;;;;;1.77;87.11;98750.69;1767087;80;21505;-83
2021/01/23 07:31:33;;;;;;;64.03;35.75;;;;;;;2.13;86.91;98751.86;1716048;81;21081;-82
2021/01/23 07:34:03;;;;;;;38.10;19.62;;;;;;;2.57;85.84;98760.75;1754292;80;21214;-82
2021/01/23 07:36:37;;;;;;;38.78;21.60;;;;;;;2.90;83.57;98765.08;1728280;82;21025;-83
2021/01/23 07:39:16;;;;;;;40.80;24.25;;;;;;;3.24;82.83;98771.27;1728891;83;20946;-83
2021/01/23 07:41:55;;;;;;;29.87;17.60;;;;;;;3.61;80.87;98775.20;1728856;81;21152;-82
2021/01/23 07:44:24;;;;;;;30.92;17.23;;;;;;;3.91;79.14;98775.39;1757132;81;21057;-80
2021/01/23 07:46:52;;;;;;;30.77;16.27;;;;;;;4.12;77.48;98778.62;1759087;81;21201;-83
2021/01/23 07:49:26;;;;;;;38.92;20.20;;;;;;;4.32;75.41;98782.44;1758963;81;20950;-82
2021/01/23 07:52:07;;;;;;;26.50;14.70;;;;;;;4.52;75.40;98778.62;1758987;81;20948;-83
2021/01/23 07:54:50;;;;;;;30.62;17.20;;;;;;;4.86;73.04;98779.14;1759031;80;20946;-85
2021/01/23 07:57:17;;;;;;;25.12;13.90;;;;;;;5.01;72.02;98772.65;1740009;81;20894;-83
2021/01/23 07:59:46;;;;;;;29.18;16.23;;;;;;;5.13;69.79;98772.18;1728869;83;21208;-82
2021/01/23 08:02:16;;;;;;;55.25;30.12;;;;;;;4.99;69.54;98770.78;1728765;83;20934;-82
2021/01/23 08:04:52;;;;;;;41.55;24.50;;;;;;;4.92;70.27;98770.35;1729062;83;21568;-82
2021/01/23 08:10:19;;;;;;;27.62;16.40;;;;;;;5.10;69.79;98768.69;1845394;76;22025;-83
2021/01/23 08:12:59;;;;;;;27.52;15.83;;;;;;;5.13;69.22;98759.94;1815626;77;21468;-80
2021/01/23 08:15:33;;;;;;;29.70;15.63;;;;;;;5.08;69.33;98758.11;1815655;79;21261;-81
2021/01/23 08:18:15;;;;;;;42.05;25.45;;;;;;;5.24;69.41;98764.06;1815545;78;20996;-80
2021/01/23 08:20:43;;;;;;;44.03;26.82;;;;;;;5.39;69.33;98768.42;1815734;79;20914;-82
2021/01/23 08:23:16;;;;;;;31.02;19.77;;;;;;;5.60;68.85;98774.55;1786244;79;21555;-81
2021/01/23 08:25:54;;;;;;;34.00;20.25;;;;;;;5.85;68.02;98776.49;1783506;80;20913;-83
2021/01/23 08:28:37;;;;;;;28.70;17.40;;;;;;;6.12;67.98;98773.78;1783807;79;22274;-84
2021/01/23 08:31:17;;;;;;;35.52;21.07;;;;;;;6.33;66.22;98771.42;1783530;80;21487;-83
2021/01/23 08:36:25;;;;;;;51.20;31.77;;;;;;;6.05;65.37;98765.77;1861812;76;22705;-82
2021/01/23 08:39:05;;;;;;;37.70;21.77;;;;;;;6.07;65.56;98770.36;1808852;79;21454;-82
2021/01/23 08:41:33;;;;;;;54.03;32.48;;;;;;;6.14;65.46;98772.92;1813224;78;22393;-83
2021/01/23 08:44:01;;;;;;;46.92;31.20;;;;;;;6.36;65.94;98765.89;1823143;78;20936;-83
2021/01/23 08:46:31;;;;;;;42.10;26.68;;;;;;;6.62;63.86;98757.38;1808706;79;20928;-88
2021/01/23 08:48:59;;;;;;;47.90;31.68;;;;;;;6.58;64.00;98753.09;1779768;79;20948;-86
2021/01/23 08:51:27;;;;;;;45.03;31.85;;;;;;;6.67;63.61;98747.72;1808928;79;21526;-80
2021/01/23 08:53:55;;;;;;;44.53;31.77;;;;;;;6.76;63.30;98748.59;1760313;79;21479;-84
2021/01/23 08:56:23;;;;;;;24.75;16.15;;;;;;;6.86;63.52;98750.27;1812387;79;20884;-84
2021/01/23 08:58:50;;;;;;;29.45;16.73;;;;;;;6.98;63.17;98750.48;1809804;79;21055;-81
2021/01/23 09:01:19;;;;;;;25.08;15.85;;;;;;;7.01;62.53;98751.22;1808544;79;21014;-81
2021/01/23 09:03:47;;;;;;;24.95;15.50;;;;;;;6.99;62.41;98748.00;1828421;76;20954;-81
2021/01/23 09:06:15;;;;;;;23.98;14.98;;;;;;;6.86;61.71;98751.07;1764563;80;21501;-80
2021/01/23 09:08:42;;;;;;;24.18;15.10;;;;;;;6.65;62.45;98746.41;1782240;79;20902;-81
2021/01/23 09:11:10;;;;;;;25.77;16.02;;;;;;;6.68;62.74;98748.52;1782262;80;21099;-80
2021/01/23 09:13:37;;;;;;;28.83;15.18;;;;;;;6.72;62.76;98753.61;1782998;80;21476;-81
2021/01/23 09:16:05;;;;;;;27.20;16.32;;;;;;;6.81;63.20;98756.65;1782776;80;20973;-83
2021/01/23 09:18:33;;;;;;;31.07;16.57;;;;;;;7.03;61.71;98756.37;1782505;79;22361;-81
2021/01/23 09:21:01;;;;;;;28.57;15.68;;;;;;;7.09;61.33;98761.39;1783752;80;20937;-79
2021/01/23 09:23:30;;;;;;;32.85;18.50;;;;;;;7.15;60.90;98764.23;1751786;82;21547;-80
2021/01/23 09:25:59;;;;;;;29.75;20.12;;;;;;;7.19;61.20;98760.33;1751367;82;21554;-80
2021/01/23 09:28:27;;;;;;;32.08;19.60;;;;;;;7.27;60.56;98760.38;1751348;82;20988;-78
2021/01/23 09:30:55;;;;;;;30.32;18.62;;;;;;;7.24;60.41;98752.00;1751288;80;21795;-78
2021/01/23 09:33:22;;;;;;;33.70;18.90;;;;;;;7.23;60.67;98752.56;1751346;82;21504;-78
2021/01/23 09:35:49;;;;;;;34.48;19.65;;;;;;;7.36;60.95;98760.42;1751721;81;20949;-78
2021/01/23 09:38:17;;;;;;;36.28;20.10;;;;;;;7.70;60.66;98758.95;1751369;80;21143;-78
2021/01/23 09:40:45;;;;;;;31.45;18.25;;;;;;;8.04;59.64;98758.25;1751404;82;21524;-78
2021/01/23 09:43:12;;;;;;;31.05;18.85;;;;;;;8.19;58.41;98765.41;1751369;82;21200;-79
2021/01/23 09:45:40;;;;;;;32.80;20.30;;;;;;;8.14;57.72;98759.29;1751215;80;21084;-78
2021/01/23 09:48:08;;;;;;;30.35;18.60;;;;;;;8.11;58.78;98763.47;1750838;82;21139;-79
2021/01/23 09:50:38;;;;;;;33.35;19.15;;;;;;;8.34;58.48;98754.61;1749753;82;21114;-78
2021/01/23 09:53:05;;;;;;;32.80;18.35;;;;;;;8.62;57.75;98753.75;1750696;82;21458;-78
2021/01/23 09:55:33;;;;;;;25.57;15.63;;;;;;;8.84;56.72;98743.17;1750383;80;21387;-79
2021/01/23 09:58:03;;;;;;;25.70;15.85;;;;;;;8.79;56.34;98745.52;1744315;82;20957;-79
2021/01/23 10:00:31;;;;;;;28.52;16.62;;;;;;;8.74;56.60;98742.13;1750781;82;20894;-79
2021/01/23 10:02:59;;;;;;;24.55;15.08;;;;;;;8.85;57.45;98746.16;1750766;81;21020;-79
2021/01/23 10:05:27;;;;;;;25.75;15.55;;;;;;;9.04;55.94;98745.25;1750667;80;21072;-81
2021/01/23 10:07:54;;;;;;;28.75;17.02;;;;;;;9.06;55.79;98753.94;1750884;82;21047;-80
2021/01/23 10:10:22;;;;;;;28.90;19.20;;;;;;;8.93;56.59;98754.36;1750704;82;21095;-79
2021/01/23 10:12:53;;;;;;;28.57;16.77;;;;;;;9.16;56.91;98752.80;1750729;82;21001;-77
2021/01/23 10:15:21;;;;;;;26.75;16.23;;;;;;;9.37;55.45;98752.88;1750714;82;20957;-77
2021/01/23 10:17:49;;;;;;;31.75;18.15;;;;;;;9.42;56.19;98749.96;1750747;82;20945;-80
2021/01/23 10:20:16;;;;;;;29.48;18.50;;;;;;;9.64;55.45;98746.18;1750735;81;21825;-79
2021/01/23 10:22:44;;;;;;;28.92;16.80;;;;;;;9.67;54.94;98743.59;1750193;82;21642;-78
2021/01/23 10:25:13;;;;;;;31.33;17.82;;;;;;;9.56;55.04;98743.71;1749989;82;20965;-78
2021/01/23 10:27:41;;;;;;;24.27;15.95;;;;;;;9.53;54.74;98734.78;1749510;82;21210;-79
2021/01/23 10:30:11;;;;;;;28.52;16.45;;;;;;;9.51;54.62;98732.94;1749551;82;21186;-79
2021/01/23 10:32:39;;;;;;;30.88;17.05;;;;;;;9.56;54.60;98739.60;1749940;82;21819;-79
2021/01/23 10:35:08;;;;;;;26.45;17.48;;;;;;;9.68;54.45;98741.66;1749617;81;21222;-79
2021/01/23 10:37:36;;;;;;;31.90;18.35;;;;;;;9.67;53.94;98736.73;1749821;82;21154;-79
2021/01/23 10:40:05;;;;;;;30.57;20.10;;;;;;;9.66;54.22;98735.70;1750808;82;21109;-79
2021/01/23 10:42:33;;;;;;;30.08;17.73;;;;;;;9.69;53.88;98730.36;1750822;80;20937;-79
2021/01/23 10:45:00;;;;;;;29.02;19.05;;;;;;;9.55;53.80;98720.19;1750729;82;21423;-79
2021/01/23 10:47:29;;;;;;;35.40;18.95;;;;;;;9.48;54.17;98715.22;1750758;82;21566;-80
2021/01/23 10:49:57;;;;;;;34.67;19.60;;;;;;;9.47;54.50;98709.50;1750788;82;21097;-80
2021/01/23 10:52:25;;;;;;;35.78;21.20;;;;;;;9.56;54.70;98705.35;1750600;80;20934;-79
2021/01/23 10:54:54;;;;;;;39.83;22.35;;;;;;;9.62;54.19;98704.03;1749985;82;21488;-85
2021/01/23 10:57:21;;;;;;;32.88;19.95;;;;;;;9.59;54.89;98704.13;1749274;80;21384;-79
2021/01/23 10:59:49;;;;;;;34.15;19.23;;;;;;;9.67;54.38;98697.00;1750616;82;20918;-78
2021/01/23 11:02:16;;;;;;;34.38;21.20;;;;;;;9.77;54.26;98693.89;1743237;82;21034;-81
2021/01/23 11:04:44;;;;;;;44.42;24.47;;;;;;;10.03;53.66;98697.02;1757603;81;20923;-83
2021/01/23 11:07:11;;;;;;;39.10;22.10;;;;;;;10.09;52.67;98695.69;1757777;81;21481;-85
2021/01/23 11:09:38;;;;;;;42.03;24.37;;;;;;;10.18;53.14;98689.00;1758329;81;21222;-87
2021/01/23 11:12:08;;;;;;;41.10;21.60;;;;;;;10.39;52.59;98686.88;1748854;82;21056;-85
2021/01/23 11:14:35;;;;;;;44.30;24.35;;;;;;;10.42;51.35;98689.72;1742481;82;20934;-85
2021/01/23 11:17:03;;;;;;;38.67;22.32;;;;;;;10.15;51.56;98693.78;1742603;82;20934;-87
2021/01/23 11:19:31;;;;;;;38.78;22.02;;;;;;;9.84;52.45;98699.62;1756119;81;20937;-82
2021/01/23 11:21:59;;;;;;;36.90;22.70;;;;;;;9.58;52.80;98708.00;1756027;81;21197;-85
2021/01/23 11:24:29;;;;;;;37.15;22.25;;;;;;;9.37;54.07;98720.01;1756053;81;20945;-86
2021/01/23 11:26:56;;;;;;;37.63;22.77;;;;;;;9.39;54.67;98720.48;1758780;81;20957;-84
2021/01/23 11:29:24;;;;;;;37.13;23.02;;;;;;;9.57;53.80;98722.03;1758216;78;21487;-82
2021/01/23 11:31:51;;;;;;;39.83;22.50;;;;;;;9.60;54.30;98715.89;1756284;80;20937;-87
2021/01/23 11:34:19;;;;;;;37.55;23.12;;;;;;;9.84;53.79;98713.33;1755746;81;21430;-83
2021/01/23 11:36:46;;;;;;;34.90;20.70;;;;;;;9.88;53.14;98704.68;1758166;80;21000;-79
2021/01/23 11:39:14;;;;;;;35.80;21.70;;;;;;;9.90;53.40;98705.72;1756171;81;21044;-79
2021/01/23 11:41:44;;;;;;;38.40;22.37;;;;;;;9.97;52.52;98711.48;1755936;80;20941;-80
2021/01/23 11:44:12;;;;;;;37.83;22.52;;;;;;;9.83;52.77;98701.32;1756085;81;20914;-74
2021/01/23 11:46:39;;;;;;;35.78;21.25;;;;;;;9.68;52.51;98703.28;1756025;81;21814;-78